No particular awareness of the weather is required.    There are no Weather-warnings


Meteo18 Weather Cam more information Meteo18 Weather Cam


Thunder radar more information blitzortung!


Rain radar more information rain snow radar


Visit our other weather sites:

Template documentation
and downloads

And another site



Weather Underground History page Text

Daily Summary for September 15, 2017 Units:  English    Metric   Both
« Previous Day
Next Day »
Daily Weekly Monthly Yearly Custom
  High: Low: Average:
Temperature: TemperatureC °F 9.3 °F 12 °F
Dew Point: DewpointC °F 5.1 °F 8 °F
Humidity: Humidity % 47 % 78 %
Wind Speed: WindSpeedKMH mph 0.0 mph 2.6 mph
Wind Gust: WindSpeedGustKMH mph - -
Wind:- - WSW
Pressure: PressurehPa in 1013.8 in -
Precipitation: 0.0 in    
Historical Graphs
 
 
Tabular Data for September 15, 2017
Time Temperature Dew Point Pressure Wind Wind Speed Wind Gust Humidity Rainfall Rate (Hourly)
TemperatureC °F DewpointC °F PressurehPa in Calm     Humidity % HourlyPrecipMM in
00:02 10.1 °F 7.5 °F 1018.8 in Calm     84 % 0.0 in
00:07 10.1 °F 7.5 °F 1018.8 in Calm     84 % 0.0 in
00:12 10.1 °F 7.5 °F 1018.8 in Calm     84 % 0.0 in
00:17 10.1 °F 7.5 °F 1018.8 in Calm     84 % 0.0 in
00:22 10.1 °F 7.5 °F 1018.8 in Calm     84 % 0.0 in
00:32 10.1 °F 7.7 °F 1018.8 in Calm   3.2 mph 85 % 0.0 in
00:42 10.0 °F 7.6 °F 1018.8 in Calm   4.8 mph 85 % 0.0 in
00:47 10.1 °F 7.7 °F 1018.8 in SSW 1.6 mph 3.2 mph 85 % 0.0 in
00:52 10.3 °F 7.5 °F 1018.5 in SW 1.6 mph 3.2 mph 83 % 0.0 in
00:57 10.4 °F 7.6 °F 1018.5 in SSW 1.6 mph 3.2 mph 83 % 0.0 in
01:02 10.4 °F 7.8 °F 1018.5 in Calm   4.8 mph 84 % 0.0 in
01:07 10.4 °F 7.8 °F 1018.5 in Calm   4.8 mph 84 % 0.0 in
01:12 10.4 °F 7.8 °F 1018.5 in Calm   4.8 mph 84 % 0.0 in
01:17 10.4 °F 7.8 °F 1018.5 in Calm   1.6 mph 84 % 0.0 in
01:22 10.4 °F 8.0 °F 1018.2 in Calm   1.6 mph 85 % 0.0 in
01:27 10.4 °F 8.2 °F 1018.2 in Calm   1.6 mph 86 % 0.0 in
01:32 10.4 °F 8.3 °F 1018.2 in SSE 1.6 mph 1.6 mph 87 % 0.0 in
01:42 10.3 °F 8.2 °F 1018.2 in Calm   1.6 mph 87 % 0.0 in
01:47 10.2 °F 8.3 °F 1018.2 in Calm   1.6 mph 88 % 0.0 in
01:52 10.2 °F 8.3 °F 1018.2 in Calm     88 % 0.0 in
01:57 10.1 °F 8.2 °F 1018.2 in Calm   1.6 mph 88 % 0.0 in
02:02 10.1 °F 8.4 °F 1018.2 in Calm   1.6 mph 89 % 0.0 in
02:07 10.1 °F 8.4 °F 1017.8 in SW 1.6 mph 1.6 mph 89 % 0.0 in
02:12 10.1 °F 8.5 °F 1017.8 in Calm   3.2 mph 90 % 0.0 in
02:17 10.3 °F 8.7 °F 1017.8 in Calm   3.2 mph 90 % 0.0 in
02:22 10.4 °F 8.8 °F 1017.8 in Calm   3.2 mph 90 % 0.0 in
02:27 10.3 °F 8.7 °F 1017.8 in Calm   1.6 mph 90 % 0.0 in
02:32 10.3 °F 8.7 °F 1017.8 in Calm     90 % 0.0 in
02:37 10.3 °F 8.7 °F 1017.8 in Calm     90 % 0.0 in
02:42 10.2 °F 8.6 °F 1017.8 in Calm   3.2 mph 90 % 0.0 in
02:47 10.1 °F 8.5 °F 1017.8 in Calm   3.2 mph 90 % 0.0 in
02:52 10.1 °F 8.5 °F 1017.8 in Calm   3.2 mph 90 % 0.0 in
02:57 10.0 °F 8.4 °F 1017.8 in Calm   1.6 mph 90 % 0.0 in
03:02 10.0 °F 8.4 °F 1017.8 in Calm     90 % 0.0 in
03:07 10.0 °F 8.6 °F 1017.5 in SSW 1.6 mph   91 % 0.0 in
03:12 10.0 °F 8.6 °F 1017.5 in SSW 3.2 mph 4.8 mph 91 % 0.0 in
03:17 10.1 °F 8.7 °F 1017.5 in Calm   4.8 mph 91 % 0.0 in
03:22 10.1 °F 8.7 °F 1017.5 in SSW 3.2 mph 4.8 mph 91 % 0.0 in
03:27 10.1 °F 8.5 °F 1017.5 in SW 6.4 mph 6.4 mph 90 % 0.0 in
03:32 10.2 °F 8.6 °F 1017.5 in SSW 1.6 mph 6.4 mph 90 % 0.0 in
03:37 10.2 °F 8.5 °F 1017.5 in Calm   6.4 mph 89 % 0.0 in
03:42 10.1 °F 8.4 °F 1017.5 in SSW 1.6 mph 6.4 mph 89 % 0.0 in
03:47 10.1 °F 8.4 °F 1017.2 in Calm   4.8 mph 89 % 0.0 in
03:57 9.8 °F 8.1 °F 1017.2 in Calm   3.2 mph 89 % 0.0 in
04:02 9.7 °F 8.0 °F 1017.2 in SSE 1.6 mph 3.2 mph 89 % 0.0 in
04:07 9.6 °F 8.0 °F 1017.2 in Calm   3.2 mph 90 % 0.0 in
04:12 9.4 °F 7.8 °F 1017.2 in Calm   3.2 mph 90 % 0.0 in
04:17 9.3 °F 7.9 °F 1017.2 in SSW 1.6 mph 3.2 mph 91 % 0.0 in
04:22 9.3 °F 7.9 °F 1017.2 in Calm   1.6 mph 91 % 0.0 in
04:32 9.3 °F 8.1 °F 1017.2 in Calm   3.2 mph 92 % 0.0 in
04:37 9.4 °F 8.2 °F 1016.8 in Calm   3.2 mph 92 % 0.0 in
04:42 9.4 °F 8.2 °F 1016.8 in Calm   1.6 mph 92 % 0.0 in
04:47 9.4 °F 8.2 °F 1016.8 in SSW 1.6 mph 1.6 mph 92 % 0.0 in
04:52 9.5 °F 8.4 °F 1016.8 in SW 3.2 mph 3.2 mph 93 % 0.0 in
04:57 9.6 °F 8.5 °F 1016.8 in SW 1.6 mph 3.2 mph 93 % 0.0 in
05:02 9.7 °F 8.6 °F 1016.8 in WSW 4.8 mph 6.4 mph 93 % 0.0 in
05:22 9.7 °F 8.5 °F 1016.5 in Calm   4.8 mph 92 % 0.0 in
05:32 9.6 °F 8.4 °F 1016.5 in NE 1.6 mph 3.2 mph 92 % 0.0 in
05:37 9.6 °F 8.5 °F 1016.5 in Calm   1.6 mph 93 % 0.0 in
05:42 9.5 °F 8.4 °F 1016.5 in Calm   1.6 mph 93 % 0.0 in
05:47 9.5 °F 8.4 °F 1016.5 in Calm   1.6 mph 93 % 0.0 in
05:52 9.4 °F 8.3 °F 1016.1 in Calm   3.2 mph 93 % 0.0 in
05:57 9.4 °F 8.3 °F 1016.1 in Calm   3.2 mph 93 % 0.0 in
06:02 9.4 °F 8.3 °F 1016.1 in Calm   3.2 mph 93 % 0.0 in
06:12 9.4 °F 8.5 °F 1016.1 in Calm   3.2 mph 94 % 0.0 in
06:17 9.3 °F 8.4 °F 1016.1 in Calm   1.6 mph 94 % 0.0 in
06:22 9.3 °F 8.4 °F 1016.1 in South 1.6 mph 1.6 mph 94 % 0.0 in
06:27 9.4 °F 8.5 °F 1016.1 in South 1.6 mph 3.2 mph 94 % 0.0 in
06:32 9.4 °F 8.5 °F 1016.1 in Calm   3.2 mph 94 % 0.0 in
06:42 9.4 °F 8.5 °F 1016.1 in South 3.2 mph 3.2 mph 94 % 0.0 in
06:52 9.5 °F 8.7 °F 1016.1 in SW 3.2 mph 4.8 mph 95 % 0.0 in
06:57 9.6 °F 8.8 °F 1016.1 in SW 1.6 mph 6.4 mph 95 % 0.0 in
07:02 9.6 °F 8.8 °F 1016.1 in SW 1.6 mph 6.4 mph 95 % 0.0 in
07:12 9.6 °F 8.7 °F 1016.1 in SSW 3.2 mph 6.4 mph 94 % 0.0 in
07:17 9.6 °F 8.7 °F 1016.1 in SSW 1.6 mph 6.4 mph 94 % 0.0 in
07:22 9.5 °F 8.6 °F 1016.1 in Calm   4.8 mph 94 % 0.0 in
07:32 9.4 °F 8.5 °F 1016.1 in Calm   3.2 mph 94 % 0.0 in
07:37 9.3 °F 8.4 °F 1016.1 in Calm   4.8 mph 94 % 0.0 in
07:42 9.3 °F 8.5 °F 1016.1 in Calm   4.8 mph 95 % 0.0 in
07:47 9.3 °F 8.5 °F 1016.1 in Calm   4.8 mph 95 % 0.0 in
07:52 9.3 °F 8.5 °F 1016.1 in SSE 1.6 mph 3.2 mph 95 % 0.0 in
07:57 9.3 °F 8.5 °F 1016.5 in ESE 1.6 mph 3.2 mph 95 % 0.0 in
08:02 9.4 °F 8.6 °F 1016.1 in South 3.2 mph 3.2 mph 95 % 0.0 in
08:12 9.6 °F 8.8 °F 1016.1 in Calm   4.8 mph 95 % 0.0 in
08:17 9.6 °F 8.8 °F 1016.1 in Calm   4.8 mph 95 % 0.0 in
08:22 9.7 °F 8.9 °F 1016.1 in Calm   3.2 mph 95 % 0.0 in
08:32 9.9 °F 9.1 °F 1016.1 in WSW 1.6 mph 3.2 mph 95 % 0.0 in
08:37 10.0 °F 9.2 °F 1016.1 in SW 4.8 mph 8.0 mph 95 % 0.0 in
08:42 10.1 °F 9.3 °F 1016.5 in Calm   9.7 mph 95 % 0.0 in
08:47 10.1 °F 9.3 °F 1016.1 in WSW 1.6 mph 9.7 mph 95 % 0.0 in
08:52 10.2 °F 9.4 °F 1016.1 in WSW 4.8 mph 9.7 mph 95 % 0.0 in
09:02 10.3 °F 9.5 °F 1016.1 in Calm   9.7 mph 95 % 0.0 in
09:12 10.3 °F 9.4 °F 1016.5 in SSW 1.6 mph 4.8 mph 94 % 0.0 in
09:17 10.4 °F 9.5 °F 1016.5 in WSW 3.2 mph 3.2 mph 94 % 0.0 in
09:22 10.4 °F 9.5 °F 1016.5 in SW 1.6 mph 8.0 mph 94 % 0.0 in
09:32 10.6 °F 9.7 °F 1016.5 in West 3.2 mph 8.0 mph 94 % 0.0 in
09:42 10.7 °F 9.6 °F 1016.5 in Calm   8.0 mph 93 % 0.0 in
09:47 10.7 °F 9.6 °F 1016.8 in SW 4.8 mph 6.4 mph 93 % 0.0 in
09:52 10.6 °F 9.5 °F 1016.8 in SSW 3.2 mph 6.4 mph 93 % 0.0 in
09:57 10.6 °F 9.5 °F 1016.8 in SSW 4.8 mph 8.0 mph 93 % 0.0 in
10:02 10.7 °F 9.6 °F 1016.8 in SSW 3.2 mph 8.0 mph 93 % 0.0 in
10:12 10.7 °F 9.6 °F 1016.8 in SW 1.6 mph 8.0 mph 93 % 0.0 in
10:17 10.8 °F 9.6 °F 1016.8 in SSW 4.8 mph 8.0 mph 92 % 0.0 in
10:22 10.8 °F 9.7 °F 1016.8 in South 3.2 mph 8.0 mph 93 % 0.0 in
10:32 10.9 °F 9.7 °F 1016.8 in SSW 3.2 mph 9.7 mph 92 % 0.0 in
10:37 11.0 °F 9.8 °F 1016.8 in SSW 4.8 mph 9.7 mph 92 % 0.0 in
10:42 11.2 °F 9.9 °F 1016.8 in SW 3.2 mph 9.7 mph 92 % 0.0 in
10:47 11.3 °F 9.9 °F 1016.8 in SSW 4.8 mph 8.0 mph 91 % 0.0 in
10:52 11.5 °F 9.9 °F 1016.8 in SSW 3.2 mph 9.7 mph 90 % 0.0 in
11:02 12.2 °F 10.6 °F 1016.8 in WSW 6.4 mph 9.7 mph 90 % 0.0 in
11:12 12.4 °F 10.5 °F 1016.8 in WSW 6.4 mph 12.9 mph 88 % 0.0 in
11:17 12.4 °F 10.3 °F 1016.8 in SW 3.2 mph 14.5 mph 87 % 0.0 in
11:22 12.5 °F 10.4 °F 1016.8 in SW 4.8 mph 14.5 mph 87 % 0.0 in
11:32 12.6 °F 10.5 °F 1016.8 in SW 12.9 mph 12.9 mph 87 % 0.0 in
11:42 12.9 °F 10.8 °F 1016.5 in SSW 6.4 mph 17.7 mph 87 % 0.0 in
11:52 12.9 °F 10.4 °F 1016.8 in SW 1.6 mph 14.5 mph 85 % 0.0 in
12:02 13.2 °F 10.4 °F 1016.5 in West 3.2 mph 14.5 mph 83 % 0.0 in
12:12 13.0 °F 9.8 °F 1016.5 in West 4.8 mph 9.7 mph 81 % 0.0 in
12:17 12.9 °F 9.7 °F 1016.5 in West 4.8 mph 11.3 mph 81 % 0.0 in
12:22 13.3 °F 9.5 °F 1016.5 in West 8.0 mph 11.3 mph 78 % 0.0 in
12:32 13.8 °F 9.8 °F 1016.5 in West 6.4 mph 8.0 mph 77 % 0.0 in
12:37 13.6 °F 9.3 °F 1016.1 in West 8.0 mph 9.7 mph 75 % 0.0 in
12:42 13.7 °F 9.3 °F 1016.1 in West 9.7 mph 9.7 mph 75 % 0.0 in
12:52 14.3 °F 9.5 °F 1016.1 in SW 4.8 mph 11.3 mph 73 % 0.0 in
13:02 14.7 °F 9.3 °F 1015.8 in WNW 9.7 mph 14.5 mph 70 % 0.0 in
13:12 14.9 °F 9.3 °F 1015.8 in South 3.2 mph 14.5 mph 69 % 0.0 in
13:17 15.1 °F 9.2 °F 1015.8 in West 3.2 mph 12.9 mph 68 % 0.0 in
13:22 15.4 °F 9.3 °F 1015.5 in West 9.7 mph 14.5 mph 67 % 0.0 in
13:27 15.3 °F 7.8 °F 1015.5 in Calm   14.5 mph 61 % 0.0 in
13:32 15.3 °F 8.1 °F 1015.5 in West 4.8 mph 14.5 mph 62 % 0.0 in
13:42 15.8 °F 8.8 °F 1015.5 in SW 6.4 mph 14.5 mph 63 % 0.0 in
13:47 16.1 °F 8.3 °F 1015.5 in WNW 4.8 mph 11.3 mph 60 % 0.0 in
13:52 16.2 °F 8.9 °F 1015.5 in WNW 3.2 mph 11.3 mph 62 % 0.0 in
13:57 15.5 °F 8.9 °F 1015.5 in NW 8.0 mph 11.3 mph 65 % 0.0 in
14:02 15.1 °F 8.8 °F 1015.5 in NW 4.8 mph 16.1 mph 66 % 0.0 in
14:12 14.6 °F 8.1 °F 1015.5 in SW 4.8 mph 16.1 mph 65 % 0.0 in
14:17 14.4 °F 7.2 °F 1015.5 in NW 3.2 mph 17.7 mph 62 % 0.0 in
14:22 14.6 °F 6.9 °F 1015.5 in West 11.3 mph 17.7 mph 60 % 0.0 in
14:27 14.3 °F 6.6 °F 1015.5 in West 9.7 mph 20.9 mph 60 % 0.0 in
14:32 14.2 °F 7.0 °F 1015.1 in WNW 6.4 mph 20.9 mph 62 % 0.0 in
14:37 14.2 °F 7.3 °F 1015.1 in NW 4.8 mph 20.9 mph 63 % 0.0 in
14:42 14.2 °F 6.5 °F 1015.1 in WNW 4.8 mph 16.1 mph 60 % 0.0 in
14:47 14.3 °F 6.9 °F 1015.1 in WNW 3.2 mph 16.1 mph 61 % 0.0 in
14:52 14.5 °F 6.3 °F 1015.1 in WSW 4.8 mph 16.1 mph 58 % 0.0 in
14:57 14.9 °F 6.7 °F 1015.1 in West 8.0 mph 12.9 mph 58 % 0.0 in
15:02 15.4 °F 6.1 °F 1014.8 in SW 3.2 mph 8.0 mph 54 % 0.0 in
15:07 15.6 °F 6.6 °F 1014.8 in WNW 9.7 mph 9.7 mph 55 % 0.0 in
15:12 15.8 °F 6.2 °F 1014.8 in NW 8.0 mph 22.5 mph 53 % 0.0 in
15:17 16.0 °F 7.0 °F 1014.8 in West 4.8 mph 22.5 mph 55 % 0.0 in
15:22 16.0 °F 6.7 °F 1014.8 in West 12.9 mph 22.5 mph 54 % 0.0 in
15:27 16.3 °F 7.0 °F 1014.8 in WSW 8.0 mph 16.1 mph 54 % 0.0 in
15:32 16.2 °F 6.9 °F 1014.4 in West 12.9 mph 16.1 mph 54 % 0.0 in
15:37 16.3 °F 7.0 °F 1014.4 in WNW 3.2 mph 17.7 mph 54 % 0.0 in
15:42 16.2 °F 6.9 °F 1014.4 in WNW 4.8 mph 17.7 mph 54 % 0.0 in
15:52 16.3 °F 6.7 °F 1014.4 in West 3.2 mph 17.7 mph 53 % 0.0 in
15:57 16.5 °F 6.3 °F 1014.4 in SSW 3.2 mph 16.1 mph 51 % 0.0 in
16:02 16.3 °F 6.1 °F 1014.4 in WNW 9.7 mph 17.7 mph 51 % 0.0 in
16:07 16.2 °F 5.2 °F 1014.4 in West 6.4 mph 17.7 mph 48 % 0.0 in
16:12 16.2 °F 6.1 °F 1014.4 in WSW 4.8 mph 17.7 mph 51 % 0.0 in
16:17 16.3 °F 5.6 °F 1014.4 in WNW 1.6 mph 17.7 mph 49 % 0.0 in
16:22 16.3 °F 5.9 °F 1014.1 in WSW 6.4 mph 16.1 mph 50 % 0.0 in
16:27 16.5 °F 5.1 °F 1014.1 in WNW 6.4 mph 14.5 mph 47 % 0.0 in
16:32 16.6 °F 6.4 °F 1014.1 in WNW 9.7 mph 14.5 mph 51 % 0.0 in
16:37 16.7 °F 6.5 °F 1014.1 in WNW 4.8 mph 14.5 mph 51 % 0.0 in
16:42 16.6 °F 6.4 °F 1014.1 in West 3.2 mph 16.1 mph 51 % 0.0 in
16:47 16.6 °F 6.4 °F 1014.1 in West 8.0 mph 16.1 mph 51 % 0.0 in
16:52 16.6 °F 6.4 °F 1014.1 in NNW 6.4 mph 16.1 mph 51 % 0.0 in
16:57 16.6 °F 6.4 °F 1014.1 in West 1.6 mph 16.1 mph 51 % 0.0 in
17:02 16.6 °F 6.1 °F 1014.1 in West 1.6 mph 16.1 mph 50 % 0.0 in
17:07 16.5 °F 5.5 °F 1014.1 in NW 6.4 mph 14.5 mph 48 % 0.0 in
17:12 16.2 °F 5.5 °F 1013.8 in NW 4.8 mph 12.9 mph 49 % 0.0 in
17:17 16.1 °F 6.0 °F 1013.8 in NW 3.2 mph 11.3 mph 51 % 0.0 in
17:22 16.0 °F 7.7 °F 1014.1 in NW 14.5 mph 14.5 mph 58 % 0.0 in
17:27 15.8 °F 7.8 °F 1014.1 in NW 6.4 mph 20.9 mph 59 % 0.0 in
17:32 15.6 °F 7.1 °F 1013.8 in WNW 1.6 mph 20.9 mph 57 % 0.0 in
17:37 15.6 °F 7.4 °F 1013.8 in Calm   14.5 mph 58 % 0.0 in
17:42 15.7 °F 7.2 °F 1013.8 in NNE 8.0 mph 14.5 mph 57 % 0.0 in
17:47 15.5 °F 7.0 °F 1013.8 in NNW 6.4 mph 12.9 mph 57 % 0.0 in
17:52 15.5 °F 7.0 °F 1013.8 in NNW 1.6 mph 12.9 mph 57 % 0.0 in
17:57 15.9 °F 6.6 °F 1013.8 in NNE 4.8 mph 11.3 mph 54 % 0.0 in
18:02 16.2 °F 7.1 °F 1013.8 in NNW 4.8 mph 11.3 mph 55 % 0.0 in
18:07 16.1 °F 7.3 °F 1013.8 in WNW 3.2 mph 11.3 mph 56 % 0.0 in
18:12 16.2 °F 7.7 °F 1013.8 in Calm   8.0 mph 57 % 0.0 in
18:17 16.3 °F 7.8 °F 1013.8 in NW 4.8 mph 8.0 mph 57 % 0.0 in
18:22 16.0 °F 7.7 °F 1013.8 in NNW 1.6 mph 8.0 mph 58 % 0.0 in
18:32 16.0 °F 8.0 °F 1013.8 in WNW 1.6 mph 6.4 mph 59 % 0.0 in
18:38 16.1 °F 7.8 °F 1013.8 in NW 3.2 mph 4.8 mph 58 % 0.0 in
18:47 16.8 °F 8.2 °F 1013.8 in Calm   4.8 mph 57 % 0.0 in
18:52 16.7 °F 8.1 °F 1013.8 in North 3.2 mph 4.8 mph 57 % 0.0 in
18:57 16.6 °F 8.0 °F 1013.8 in NW 4.8 mph 9.7 mph 57 % 0.0 in
19:02 16.3 °F 8.0 °F 1013.8 in NW 1.6 mph 12.9 mph 58 % 0.0 in
19:07 15.9 °F 8.1 °F 1013.8 in NNW 6.4 mph 14.5 mph 60 % 0.0 in
19:12 15.7 °F 8.0 °F 1013.8 in North 4.8 mph 16.1 mph 60 % 0.0 in
19:17 15.7 °F 8.2 °F 1013.8 in NNW 4.8 mph 16.1 mph 61 % 0.0 in
19:22 15.4 °F 8.2 °F 1013.8 in NNW 8.0 mph 14.5 mph 62 % 0.0 in
19:27 15.2 °F 8.4 °F 1013.8 in North 8.0 mph 14.5 mph 64 % 0.0 in
19:32 14.9 °F 7.4 °F 1013.8 in NNE 3.2 mph 14.5 mph 61 % 0.0 in
19:37 14.7 °F 7.3 °F 1013.8 in NE 3.2 mph 12.9 mph 61 % 0.0 in
19:42 14.4 °F 7.0 °F 1013.8 in NW 3.2 mph 12.9 mph 61 % 0.0 in
19:47 14.2 °F 7.0 °F 1013.8 in NNW 1.6 mph 9.7 mph 62 % 0.0 in
19:52 14.0 °F 7.3 °F 1013.8 in NNW 3.2 mph 6.4 mph 64 % 0.0 in
19:57 13.7 °F 7.5 °F 1013.8 in NW 6.4 mph 8.0 mph 66 % 0.0 in
20:02 13.4 °F 7.6 °F 1013.8 in NNW 1.6 mph 8.0 mph 68 % 0.0 in
20:07 13.1 °F 7.5 °F 1013.8 in Calm   8.0 mph 69 % 0.0 in
20:12 12.8 °F 7.5 °F 1014.1 in Calm   8.0 mph 70 % 0.0 in
20:17 12.6 °F 7.7 °F 1013.8 in WNW 1.6 mph 8.0 mph 72 % 0.0 in
20:22 12.4 °F 7.7 °F 1013.8 in Calm   8.0 mph 73 % 0.0 in
20:27 12.2 °F 7.7 °F 1013.8 in NW 1.6 mph 8.0 mph 74 % 0.0 in
20:32 12.0 °F 7.7 °F 1014.1 in Calm   4.8 mph 75 % 0.0 in
20:37 11.9 °F 7.8 °F 1014.1 in Calm   4.8 mph 76 % 0.0 in
20:42 11.9 °F 7.8 °F 1014.1 in NNW 1.6 mph 4.8 mph 76 % 0.0 in
20:47 11.8 °F 7.9 °F 1014.1 in Calm   4.8 mph 77 % 0.0 in
20:52 11.7 °F 8.0 °F 1014.1 in Calm   4.8 mph 78 % 0.0 in
20:57 11.5 °F 7.8 °F 1014.4 in Calm   4.8 mph 78 % 0.0 in
21:02 11.5 °F 7.8 °F 1014.4 in Calm   4.8 mph 78 % 0.0 in
21:12 11.4 °F 7.9 °F 1014.4 in Calm   3.2 mph 79 % 0.0 in
21:17 11.3 °F 7.8 °F 1014.4 in Calm   1.6 mph 79 % 0.0 in
21:22 11.0 °F 7.7 °F 1014.4 in Calm   1.6 mph 80 % 0.0 in
21:27 10.8 °F 7.7 °F 1014.4 in Calm     81 % 0.0 in
21:32 10.7 °F 7.6 °F 1014.4 in Calm     81 % 0.0 in
21:37 10.6 °F 7.7 °F 1014.4 in Calm     82 % 0.0 in
21:42 10.6 °F 7.7 °F 1014.4 in Calm   1.6 mph 82 % 0.0 in
21:47 10.6 °F 7.7 °F 1014.4 in Calm   1.6 mph 82 % 0.0 in
21:52 10.4 °F 7.6 °F 1014.4 in Calm   1.6 mph 83 % 0.0 in
21:57 10.4 °F 7.6 °F 1014.4 in Calm   1.6 mph 83 % 0.0 in
22:02 10.3 °F 7.7 °F 1014.4 in Calm   1.6 mph 84 % 0.0 in
22:07 10.3 °F 7.9 °F 1014.4 in Calm     85 % 0.0 in
22:12 10.3 °F 7.9 °F 1014.4 in Calm     85 % 0.0 in
22:17 10.3 °F 7.9 °F 1014.4 in Calm     85 % 0.0 in
22:22 10.3 °F 7.7 °F 1014.4 in Calm     84 % 0.0 in
22:27 10.2 °F 7.6 °F 1014.8 in WNW 1.6 mph   84 % 0.0 in
22:32 10.0 °F 7.6 °F 1014.4 in Calm   1.6 mph 85 % 0.0 in
22:37 10.0 °F 7.8 °F 1014.4 in Calm   1.6 mph 86 % 0.0 in
22:42 10.1 °F 7.7 °F 1014.4 in Calm   1.6 mph 85 % 0.0 in
22:47 9.9 °F 7.7 °F 1014.8 in Calm   1.6 mph 86 % 0.0 in
22:52 9.8 °F 7.6 °F 1014.8 in Calm   1.6 mph 86 % 0.0 in
22:57 9.8 °F 7.7 °F 1014.8 in Calm   1.6 mph 87 % 0.0 in
23:02 9.9 °F 7.8 °F 1014.8 in Calm   1.6 mph 87 % 0.0 in
23:12 9.7 °F 7.8 °F 1014.4 in Calm   3.2 mph 88 % 0.0 in
23:17 9.6 °F 7.7 °F 1014.8 in Calm   3.2 mph 88 % 0.0 in
23:22 9.7 °F 7.8 °F 1014.8 in Calm   3.2 mph 88 % 0.0 in
23:27 9.6 °F 7.7 °F 1014.8 in Calm   3.2 mph 88 % 0.0 in
23:32 9.6 °F 7.7 °F 1014.8 in WNW 1.6 mph 3.2 mph 88 % 0.0 in
23:37 9.6 °F 7.9 °F 1014.8 in Calm   3.2 mph 89 % 0.0 in
23:42 9.6 °F 7.7 °F 1014.8 in Calm   3.2 mph 88 % 0.0 in
23:47 9.5 °F 7.6 °F 1014.8 in Calm   1.6 mph 88 % 0.0 in
23:52 9.4 °F 7.7 °F 1014.8 in WNW 1.6 mph 1.6 mph 89 % 0.0 in
23:57 9.3 °F 7.6 °F 1014.8 in WNW 1.6 mph 3.2 mph 89 % 0.0 in
Meteo18
Compliments of Weather Underground - 4 mb

Script developed by  Jim McMurry - jmcmurry@mwt.net Adapted for the template by  Wim van der Kuil - Leuven-Template.eu

You find our weather info also at:

European Weather Network

Weather Underground

Equipment we use:

Weather-station
Davis Vue

Weather-program
Meteobridge

Weather-server
Raspberry PI 2 B+

Provider
1 and 1

Davis Vue

Meteobridge

Raspberry PI 2 B+

1 and 1